Time;durP1;ratioP1;P1;durP2;ratioP2;P2;SDS_P1;SDS_P2;PMS_P1;PMS_P2;Temp;Humidity;BMP_temperature;BMP_pressure;BME280_temperature;BME280_humidity;BME280_pressure;Samples;Min_cycle;Max_cycle;Signal;HPM_P1;HPM_P2
2022/07/22 00:00:16;;;;;;;5.13;4.73;;;18.80;99.90;;;;;;5043792;28;20474;-78
2022/07/22 00:02:43;;;;;;;8.90;4.30;;;18.70;99.90;;;;;;5048193;28;20439;-77
2022/07/22 00:05:11;;;;;;;4.93;4.43;;;18.70;99.90;;;;;;5046195;28;20468;-77
2022/07/22 00:07:38;;;;;;;5.13;4.60;;;18.70;99.90;;;;;;5044949;28;20437;-78
2022/07/22 00:10:06;;;;;;;4.87;3.80;;;18.60;99.90;;;;;;5049119;28;20549;-78
2022/07/22 00:12:33;;;;;;;6.40;5.80;;;18.50;99.90;;;;;;5041503;28;20437;-79
2022/07/22 00:15:01;;;;;;;6.27;4.10;;;18.50;99.90;;;;;;5045433;28;20961;-78
2022/07/22 00:17:28;;;;;;;4.20;3.80;;;18.40;99.90;;;;;;5044602;28;20561;-78
2022/07/22 00:19:55;;;;;;;4.17;3.77;;;18.40;99.90;;;;;;5047174;28;20491;-77
2022/07/22 00:22:22;;;;;;;4.30;3.90;;;18.30;99.90;;;;;;5043954;28;20468;-76
2022/07/22 00:24:49;;;;;;;6.10;4.00;;;18.30;99.90;;;;;;5046870;28;20552;-77
2022/07/22 00:27:16;;;;;;;4.67;4.10;;;18.30;99.90;;;;;;5052912;28;20448;-77
2022/07/22 00:29:43;;;;;;;7.27;3.77;;;18.30;99.90;;;;;;5049104;28;20523;-77
2022/07/22 00:32:11;;;;;;;5.37;3.70;;;18.30;99.90;;;;;;5039848;28;20469;-76
2022/07/22 00:34:38;;;;;;;6.33;4.50;;;18.40;99.90;;;;;;5039493;28;20458;-76
2022/07/22 00:37:06;;;;;;;8.60;5.03;;;18.40;99.90;;;;;;5044331;28;20819;-77
2022/07/22 00:39:33;;;;;;;7.03;4.60;;;18.40;99.90;;;;;;5050763;28;20804;-78
2022/07/22 00:42:00;;;;;;;5.70;5.10;;;18.40;99.90;;;;;;5051207;28;20476;-76
2022/07/22 00:44:27;;;;;;;4.80;4.27;;;18.30;99.90;;;;;;5050150;28;20504;-77
2022/07/22 00:46:54;;;;;;;6.87;5.10;;;18.30;99.90;;;;;;5048242;28;20464;-76
2022/07/22 00:49:22;;;;;;;5.43;4.73;;;18.30;99.90;;;;;;5043024;28;20438;-75
2022/07/22 00:51:49;;;;;;;7.97;5.30;;;18.30;99.90;;;;;;5042846;28;20548;-75
2022/07/22 00:54:16;;;;;;;7.83;6.07;;;18.30;99.90;;;;;;5045064;28;20498;-76
2022/07/22 00:56:44;;;;;;;9.03;6.13;;;18.20;99.90;;;;;;5048550;28;20512;-76
2022/07/22 00:59:12;;;;;;;8.57;6.50;;;18.20;99.90;;;;;;5046373;28;20489;-76
2022/07/22 01:01:39;;;;;;;10.67;5.60;;;18.20;99.90;;;;;;5039635;28;20453;-76
2022/07/22 01:04:07;;;;;;;14.33;6.50;;;18.20;99.90;;;;;;5043705;28;20548;-75
2022/07/22 01:06:35;;;;;;;12.47;9.80;;;18.20;99.90;;;;;;5043696;28;20473;-77
2022/07/22 01:09:02;;;;;;;9.70;5.07;;;18.10;99.90;;;;;;5049847;28;20536;-75
2022/07/22 01:11:30;;;;;;;8.20;5.20;;;18.10;99.90;;;;;;5044344;28;20497;-75
2022/07/22 01:13:57;;;;;;;10.50;5.00;;;18.10;99.90;;;;;;5045398;28;20531;-76
2022/07/22 01:16:25;;;;;;;11.33;4.43;;;18.10;99.90;;;;;;5047025;28;20972;-77
2022/07/22 01:18:52;;;;;;;5.87;4.40;;;18.10;99.90;;;;;;5043621;28;20483;-76
2022/07/22 01:21:25;;;;;;;7.17;5.83;;;18.10;99.90;;;;;;5046082;28;20565;-76
2022/07/22 01:23:52;;;;;;;10.50;7.07;;;18.10;99.90;;;;;;5065611;28;20541;-75
2022/07/22 01:26:24;;;;;;;9.13;7.87;;;18.20;99.90;;;;;;5054668;28;20233;-76
2022/07/22 01:28:51;;;;;;;8.00;6.53;;;18.10;99.90;;;;;;5051133;28;20872;-76
2022/07/22 01:31:18;;;;;;;10.77;7.13;;;18.20;99.90;;;;;;5047034;28;20484;-76
2022/07/22 01:33:45;;;;;;;8.57;7.70;;;18.20;99.90;;;;;;5049148;28;21093;-76
2022/07/22 01:36:12;;;;;;;9.80;6.60;;;18.20;99.90;;;;;;5055224;28;20453;-77
2022/07/22 01:38:40;;;;;;;8.50;6.40;;;18.10;99.90;;;;;;5050258;28;20489;-76
2022/07/22 01:41:07;;;;;;;7.87;6.03;;;18.00;99.90;;;;;;5054287;28;20894;-77
2022/07/22 01:43:35;;;;;;;9.83;5.93;;;18.00;99.90;;;;;;5052690;28;20476;-76
2022/07/22 01:46:02;;;;;;;6.43;5.07;;;18.00;99.90;;;;;;5053477;28;20536;-76
2022/07/22 01:48:29;;;;;;;5.67;4.90;;;18.00;99.90;;;;;;5047311;28;20532;-77
2022/07/22 01:50:56;;;;;;;8.20;4.20;;;17.90;99.90;;;;;;5048431;28;20441;-77
2022/07/22 01:53:23;;;;;;;9.33;6.17;;;17.90;99.90;;;;;;5051600;28;20491;-76
2022/07/22 01:55:52;;;;;;;10.23;5.20;;;17.90;99.90;;;;;;5039183;28;20542;-78
2022/07/22 01:58:19;;;;;;;6.67;4.13;;;17.90;99.90;;;;;;5051230;28;20455;-76
2022/07/22 02:00:47;;;;;;;5.20;4.70;;;17.80;99.90;;;;;;5048726;28;20478;-76
2022/07/22 02:03:14;;;;;;;7.70;4.33;;;17.90;99.90;;;;;;5052299;28;20812;-77
2022/07/22 02:05:41;;;;;;;6.00;4.13;;;17.80;99.90;;;;;;5048424;28;20808;-76
2022/07/22 02:08:10;;;;;;;8.43;5.47;;;17.80;99.90;;;;;;5044035;28;20900;-76
2022/07/22 02:10:38;;;;;;;8.40;5.50;;;17.80;99.90;;;;;;5046619;28;20460;-75
2022/07/22 02:13:06;;;;;;;8.07;6.07;;;17.80;99.90;;;;;;5046049;28;20465;-75
2022/07/22 02:15:34;;;;;;;9.32;5.75;;;17.80;99.90;;;;;;5047684;28;20488;-75
2022/07/22 02:18:01;;;;;;;14.60;6.50;;;17.80;99.90;;;;;;5051800;28;20389;-75
2022/07/22 02:20:28;;;;;;;7.30;6.23;;;17.80;99.90;;;;;;5047829;28;20588;-76
2022/07/22 02:22:54;;;;;;;9.40;6.20;;;17.80;99.90;;;;;;5043089;28;20470;-77
2022/07/22 02:25:22;;;;;;;8.80;7.60;;;17.90;99.90;;;;;;5051744;28;20463;-75
2022/07/22 02:27:49;;;;;;;7.00;4.97;;;17.80;99.90;;;;;;5054837;28;20203;-76
2022/07/22 02:30:18;;;;;;;7.13;5.67;;;17.80;99.90;;;;;;5050999;28;20543;-76
2022/07/22 02:32:45;;;;;;;10.17;6.60;;;17.80;99.90;;;;;;5054563;28;20509;-76
2022/07/22 02:35:12;;;;;;;8.63;6.07;;;17.70;99.90;;;;;;5052455;28;20938;-75
2022/07/22 02:37:38;;;;;;;17.10;7.07;;;17.60;99.90;;;;;;5053639;28;20537;-76
2022/07/22 02:40:07;;;;;;;9.23;5.90;;;17.70;99.90;;;;;;5049717;28;20584;-75
2022/07/22 02:42:34;;;;;;;10.70;5.57;;;17.70;99.90;;;;;;5048687;28;20875;-75
2022/07/22 02:45:01;;;;;;;12.03;5.20;;;17.70;99.90;;;;;;5048080;28;20454;-77
2022/07/22 02:47:30;;;;;;;6.53;4.97;;;17.70;99.90;;;;;;5044592;28;20446;-75
2022/07/22 02:49:57;;;;;;;8.52;7.65;;;17.70;99.90;;;;;;5042048;28;20437;-75
2022/07/22 02:52:24;;;;;;;7.63;5.57;;;17.70;99.90;;;;;;5046130;28;20207;-75
2022/07/22 02:54:50;;;;;;;9.25;4.10;;;17.70;99.90;;;;;;5050654;28;20482;-75
2022/07/22 02:57:17;;;;;;;5.97;4.80;;;17.70;99.90;;;;;;5042178;28;20225;-75
2022/07/22 02:59:44;;;;;;;8.20;4.73;;;17.60;99.90;;;;;;5051245;28;20489;-76
2022/07/22 03:02:11;;;;;;;5.80;4.00;;;17.60;99.90;;;;;;5050830;28;20453;-76
2022/07/22 03:04:40;;;;;;;9.03;4.13;;;17.60;99.90;;;;;;5044627;28;20468;-77
2022/07/22 03:07:06;;;;;;;8.07;4.50;;;17.60;99.90;;;;;;5047441;28;20540;-76
2022/07/22 03:09:33;;;;;;;7.37;3.57;;;17.50;99.90;;;;;;5049044;28;20904;-75
2022/07/22 03:12:00;;;;;;;5.47;3.50;;;17.50;99.90;;;;;;5047033;28;20537;-76
2022/07/22 03:14:27;;;;;;;8.27;4.23;;;17.50;99.90;;;;;;5042841;28;20475;-76
2022/07/22 03:16:54;;;;;;;6.75;4.07;;;17.50;99.90;;;;;;5053787;28;20455;-75
2022/07/22 03:19:21;;;;;;;7.73;4.27;;;17.50;99.90;;;;;;5063175;28;20234;-77
2022/07/22 03:21:49;;;;;;;9.07;5.10;;;17.50;99.90;;;;;;5049956;28;20557;-75
2022/07/22 03:24:16;;;;;;;5.03;3.90;;;17.50;99.90;;;;;;5051498;28;20567;-76
2022/07/22 03:26:43;;;;;;;10.77;4.68;;;17.40;99.90;;;;;;5053696;28;20736;-76
2022/07/22 03:29:10;;;;;;;9.85;5.30;;;17.50;99.90;;;;;;5049585;28;20615;-76
2022/07/22 03:31:37;;;;;;;5.83;4.40;;;17.40;99.90;;;;;;5041644;28;20238;-76
2022/07/22 03:34:04;;;;;;;10.63;5.33;;;17.40;99.90;;;;;;5044269;28;20498;-77
2022/07/22 03:36:31;;;;;;;6.13;3.63;;;17.50;99.90;;;;;;5044990;28;20437;-76
2022/07/22 03:38:59;;;;;;;7.20;3.80;;;17.50;99.90;;;;;;5046087;28;20203;-77
2022/07/22 03:41:26;;;;;;;8.20;3.97;;;17.50;99.90;;;;;;5044140;28;20480;-76
2022/07/22 03:43:53;;;;;;;5.50;3.25;;;17.50;99.90;;;;;;5042296;28;20559;-76
2022/07/22 03:46:20;;;;;;;6.27;3.57;;;17.50;99.90;;;;;;5040230;28;20234;-76
2022/07/22 03:48:47;;;;;;;5.10;2.93;;;17.50;99.90;;;;;;5046018;28;20619;-76
2022/07/22 03:51:14;;;;;;;4.83;3.00;;;17.40;99.90;;;;;;5050188;28;20510;-76
2022/07/22 03:53:41;;;;;;;7.93;2.80;;;17.40;99.90;;;;;;5044701;28;20564;-78
2022/07/22 03:56:09;;;;;;;4.10;2.90;;;17.50;99.90;;;;;;5052875;28;20283;-78
2022/07/22 03:58:37;;;;;;;7.78;2.80;;;17.50;99.90;;;;;;5042388;28;20436;-79
2022/07/22 04:01:04;;;;;;;5.83;3.37;;;17.50;99.90;;;;;;5048122;28;20297;-78
2022/07/22 04:03:31;;;;;;;7.07;3.80;;;17.50;99.90;;;;;;5049772;28;20471;-77
2022/07/22 04:05:58;;;;;;;7.10;3.35;;;17.50;99.90;;;;;;5048825;28;20299;-76
2022/07/22 04:08:25;;;;;;;14.27;6.40;;;17.50;99.90;;;;;;5050928;28;20202;-78
2022/07/22 04:10:52;;;;;;;12.80;5.73;;;17.50;99.90;;;;;;5053255;28;20521;-75
2022/07/22 04:13:20;;;;;;;11.55;6.00;;;17.50;99.90;;;;;;5049291;28;20475;-77
2022/07/22 04:15:47;;;;;;;8.30;6.23;;;17.40;99.90;;;;;;5041905;28;20200;-76
2022/07/22 04:18:15;;;;;;;6.97;4.18;;;17.40;99.90;;;;;;5048755;28;20566;-76
2022/07/22 04:20:42;;;;;;;6.60;4.30;;;17.40;99.90;;;;;;5054390;28;20246;-76
2022/07/22 04:23:08;;;;;;;10.50;4.73;;;17.40;99.90;;;;;;5050831;28;20530;-76
2022/07/22 04:25:35;;;;;;;8.30;5.05;;;17.40;99.90;;;;;;5045738;28;20520;-76
2022/07/22 04:28:03;;;;;;;8.40;4.80;;;17.50;99.90;;;;;;5046020;28;20207;-75
2022/07/22 04:30:31;;;;;;;9.70;4.32;;;17.50;99.90;;;;;;5041482;28;20195;-77
2022/07/22 04:32:59;;;;;;;10.77;4.70;;;17.50;99.90;;;;;;5050621;28;20228;-77
2022/07/22 04:35:26;;;;;;;18.93;4.83;;;17.50;99.90;;;;;;5048628;28;20441;-77
2022/07/22 04:37:53;;;;;;;7.43;3.97;;;17.60;99.90;;;;;;5048344;28;20551;-76
2022/07/22 04:40:20;;;;;;;8.57;3.43;;;17.60;99.90;;;;;;5043362;28;20457;-77
2022/07/22 04:42:46;;;;;;;11.27;4.55;;;17.50;99.90;;;;;;5038032;28;20544;-76
2022/07/22 04:45:13;;;;;;;10.57;4.50;;;17.50;99.90;;;;;;5042447;28;20231;-76
2022/07/22 04:47:42;;;;;;;12.40;4.40;;;17.60;99.90;;;;;;5042700;28;20457;-78
2022/07/22 04:50:09;;;;;;;14.30;4.77;;;17.60;99.90;;;;;;5046955;28;20543;-75
2022/07/22 04:52:36;;;;;;;6.90;3.60;;;17.50;99.90;;;;;;5044629;28;20589;-77
2022/07/22 04:55:04;;;;;;;9.50;4.03;;;17.50;99.90;;;;;;5037831;28;20206;-77
2022/07/22 04:57:31;;;;;;;9.53;3.60;;;17.60;99.90;;;;;;5046126;28;20527;-78
2022/07/22 04:59:57;;;;;;;12.63;3.77;;;17.60;99.90;;;;;;5039215;28;20545;-77
2022/07/22 05:02:24;;;;;;;6.27;3.20;;;17.70;99.90;;;;;;5033913;28;20572;-77
2022/07/22 05:04:53;;;;;;;10.13;3.77;;;17.60;99.90;;;;;;5041964;28;20442;-77
2022/07/22 05:07:20;;;;;;;11.70;4.07;;;17.70;99.90;;;;;;5039990;28;20536;-78
2022/07/22 05:09:47;;;;;;;5.55;3.60;;;17.70;99.90;;;;;;5046627;28;20449;-78
2022/07/22 05:12:13;;;;;;;4.90;3.45;;;17.70;99.90;;;;;;5048099;28;20231;-77
2022/07/22 05:14:40;;;;;;;12.03;4.60;;;17.80;99.90;;;;;;5061359;28;20772;-80
2022/07/22 05:17:10;;;;;;;5.27;3.17;;;17.80;99.90;;;;;;5047977;28;20457;-79
2022/07/22 05:19:39;;;;;;;12.50;5.37;;;17.70;99.90;;;;;;5045534;28;20485;-78
2022/07/22 05:22:07;;;;;;;13.50;6.40;;;17.80;99.90;;;;;;5049513;28;20567;-76
2022/07/22 05:24:34;;;;;;;10.80;4.60;;;17.80;99.90;;;;;;5048597;28;20464;-77
2022/07/22 05:27:02;;;;;;;7.73;4.67;;;17.80;99.90;;;;;;5042280;28;20207;-79
2022/07/22 05:29:28;;;;;;;8.30;4.30;;;17.90;99.90;;;;;;5043970;28;20481;-76
2022/07/22 05:31:55;;;;;;;7.43;3.40;;;17.90;99.90;;;;;;5050152;28;20982;-77
2022/07/22 05:34:23;;;;;;;12.07;3.37;;;18.00;99.90;;;;;;5037686;28;20572;-77
2022/07/22 05:36:49;;;;;;;7.57;3.50;;;17.90;99.90;;;;;;5041851;28;20532;-78
2022/07/22 05:39:18;;;;;;;7.37;3.37;;;17.90;99.90;;;;;;5046569;28;20446;-76
2022/07/22 05:41:45;;;;;;;7.93;3.80;;;18.00;99.90;;;;;;5047943;28;20509;-79
2022/07/22 05:44:12;;;;;;;8.63;3.67;;;18.00;99.90;;;;;;5050118;28;20560;-77
2022/07/22 05:46:39;;;;;;;7.10;2.80;;;18.00;99.90;;;;;;5043162;28;20921;-79
2022/07/22 05:49:06;;;;;;;6.33;2.87;;;18.00;99.90;;;;;;5049417;28;20464;-78
2022/07/22 05:51:34;;;;;;;7.50;3.50;;;18.10;99.90;;;;;;5046319;28;20883;-78
2022/07/22 05:54:02;;;;;;;9.77;3.47;;;18.20;99.90;;;;;;5052815;28;20470;-77
2022/07/22 05:56:31;;;;;;;9.03;3.27;;;18.10;99.90;;;;;;5046841;28;20461;-76
2022/07/22 05:58:58;;;;;;;9.97;3.20;;;18.20;99.90;;;;;;5047608;28;20528;-76
2022/07/22 06:01:24;;;;;;;6.83;3.23;;;18.20;99.90;;;;;;5052974;28;20576;-78
2022/07/22 06:03:53;;;;;;;8.80;2.90;;;18.30;99.90;;;;;;5054542;28;20469;-77
2022/07/22 06:06:19;;;;;;;9.13;2.63;;;18.30;99.90;;;;;;5062965;28;20441;-76
2022/07/22 06:08:46;;;;;;;7.90;2.83;;;18.50;99.90;;;;;;5046808;28;20886;-78
2022/07/22 06:11:14;;;;;;;8.93;3.80;;;18.70;99.90;;;;;;5043636;28;20476;-78
2022/07/22 06:13:43;;;;;;;7.47;3.10;;;19.00;99.90;;;;;;5054443;28;20556;-78
2022/07/22 06:16:10;;;;;;;5.30;3.13;;;19.10;99.90;;;;;;5047148;28;20443;-76
2022/07/22 06:18:37;;;;;;;5.47;2.70;;;19.40;99.90;;;;;;5048255;28;20537;-77
2022/07/22 06:21:05;;;;;;;9.63;2.20;;;19.60;99.90;;;;;;5054590;28;20516;-76
2022/07/22 06:23:32;;;;;;;8.73;2.70;;;19.70;99.90;;;;;;5064492;28;20469;-77
2022/07/22 06:25:59;;;;;;;6.93;2.83;;;19.60;99.90;;;;;;5056978;28;20875;-76
2022/07/22 06:28:26;;;;;;;9.10;3.57;;;19.60;99.90;;;;;;5056407;28;20527;-76
2022/07/22 06:30:54;;;;;;;5.97;2.73;;;19.80;99.90;;;;;;5055154;28;20460;-77
2022/07/22 06:33:21;;;;;;;12.00;3.33;;;19.80;99.90;;;;;;5046715;28;20476;-76
2022/07/22 06:35:48;;;;;;;7.17;3.40;;;19.90;99.90;;;;;;5051250;28;20460;-75
2022/07/22 06:38:15;;;;;;;7.50;3.40;;;20.00;99.90;;;;;;5040362;28;20537;-77
2022/07/22 06:40:42;;;;;;;7.10;2.13;;;20.10;99.90;;;;;;5037974;28;20439;-77
2022/07/22 06:43:08;;;;;;;8.40;2.87;;;20.20;99.90;;;;;;5045109;28;20593;-76
2022/07/22 06:45:35;;;;;;;8.57;2.70;;;20.20;99.90;;;;;;5044125;28;20443;-76
2022/07/22 06:48:04;;;;;;;7.70;1.83;;;19.90;99.90;;;;;;5042182;28;20569;-76
2022/07/22 06:50:31;;;;;;;10.67;2.97;;;19.90;99.90;;;;;;5041867;28;20442;-77
2022/07/22 06:52:58;;;;;;;19.03;3.20;;;19.70;99.90;;;;;;5057404;28;20485;-76
2022/07/22 06:55:25;;;;;;;6.40;2.20;;;19.60;99.90;;;;;;5049542;28;20475;-79
2022/07/22 06:57:52;;;;;;;7.20;2.90;;;19.60;99.90;;;;;;5048622;28;20503;-77
2022/07/22 07:00:19;;;;;;;3.90;1.90;;;19.80;99.90;;;;;;5042740;28;20524;-78
2022/07/22 07:02:47;;;;;;;12.73;3.37;;;19.80;99.90;;;;;;5046841;28;20660;-76
2022/07/22 07:05:15;;;;;;;4.90;2.10;;;19.90;99.90;;;;;;5052945;28;20482;-76
2022/07/22 07:07:42;;;;;;;7.40;2.80;;;19.90;99.90;;;;;;5050534;28;20462;-76
2022/07/22 07:10:12;;;;;;;3.80;2.23;;;19.90;99.90;;;;;;5049620;28;20462;-76
2022/07/22 07:12:39;;;;;;;8.40;4.10;;;19.90;99.90;;;;;;5046746;28;20469;-78
2022/07/22 07:15:07;;;;;;;7.90;3.07;;;20.00;99.90;;;;;;5047965;28;20805;-78
2022/07/22 07:17:35;;;;;;;6.33;2.77;;;19.90;99.90;;;;;;5053868;28;20478;-78
2022/07/22 07:20:02;;;;;;;13.07;3.77;;;19.80;99.90;;;;;;5042546;28;20451;-77
2022/07/22 07:22:30;;;;;;;6.00;2.80;;;19.80;99.90;;;;;;5048767;28;20560;-76
2022/07/22 07:24:57;;;;;;;7.73;3.10;;;19.80;99.90;;;;;;5043441;28;20452;-77
2022/07/22 07:27:25;;;;;;;7.90;2.23;;;19.70;99.90;;;;;;5049881;28;20443;-77
2022/07/22 07:29:54;;;;;;;7.17;2.57;;;19.80;99.90;;;;;;5042078;28;20439;-77
2022/07/22 07:32:21;;;;;;;6.13;3.00;;;19.80;99.90;;;;;;5052282;28;20442;-77
2022/07/22 07:34:48;;;;;;;7.57;2.63;;;19.90;99.90;;;;;;5053573;28;20476;-76
2022/07/22 07:37:15;;;;;;;4.03;1.87;;;20.00;99.90;;;;;;5052234;28;20474;-76
2022/07/22 07:39:43;;;;;;;4.90;2.10;;;20.00;99.90;;;;;;5055038;28;20937;-76
2022/07/22 07:42:10;;;;;;;6.13;2.83;;;20.20;99.90;;;;;;5049229;28;20474;-76
2022/07/22 07:44:37;;;;;;;3.33;2.33;;;20.20;99.90;;;;;;5049589;28;20987;-78
2022/07/22 07:47:05;;;;;;;6.80;2.90;;;20.20;99.90;;;;;;5053266;28;20442;-77
2022/07/22 07:49:32;;;;;;;5.97;3.10;;;20.10;99.90;;;;;;5049918;28;20440;-76
2022/07/22 07:51:58;;;;;;;6.23;2.60;;;20.20;99.90;;;;;;5044830;28;20481;-78
2022/07/22 07:54:26;;;;;;;6.30;2.23;;;20.20;99.90;;;;;;5038722;28;20509;-76
2022/07/22 07:56:54;;;;;;;6.43;2.37;;;20.20;99.90;;;;;;5044260;28;20505;-77
2022/07/22 07:59:22;;;;;;;5.30;2.50;;;20.30;99.90;;;;;;5053507;28;20451;-77
2022/07/22 08:01:49;;;;;;;5.63;2.33;;;20.50;99.90;;;;;;5046301;28;20845;-77
2022/07/22 08:04:16;;;;;;;7.13;3.10;;;20.50;99.90;;;;;;5052230;28;20556;-76
2022/07/22 08:06:43;;;;;;;9.33;2.73;;;20.60;99.90;;;;;;5041085;28;20485;-76
2022/07/22 08:09:10;;;;;;;4.07;2.90;;;20.80;99.90;;;;;;5052092;28;20471;-77
2022/07/22 08:11:37;;;;;;;5.43;1.70;;;20.90;99.70;;;;;;5051084;28;20519;-77
2022/07/22 08:14:05;;;;;;;3.00;2.20;;;21.20;99.40;;;;;;5051617;28;20469;-76
2022/07/22 08:16:33;;;;;;;13.03;2.30;;;21.60;98.30;;;;;;5046977;28;20540;-74
2022/07/22 08:18:59;;;;;;;5.93;1.90;;;21.80;97.30;;;;;;5048335;28;20533;-77
2022/07/22 08:21:26;;;;;;;5.03;1.87;;;21.80;96.50;;;;;;5042783;28;20570;-77
2022/07/22 08:23:53;;;;;;;8.43;2.00;;;21.80;96.20;;;;;;5051508;28;20487;-77
2022/07/22 08:26:20;;;;;;;6.60;2.80;;;21.90;97.30;;;;;;5043976;28;20443;-77
2022/07/22 08:28:48;;;;;;;3.80;1.80;;;22.10;97.40;;;;;;5051293;28;20536;-76
2022/07/22 08:31:16;;;;;;;11.90;3.27;;;22.20;96.40;;;;;;5049507;28;20506;-77
2022/07/22 08:33:43;;;;;;;5.87;2.97;;;22.50;97.60;;;;;;5053781;28;21018;-77
2022/07/22 08:36:10;;;;;;;4.67;1.87;;;22.60;96.40;;;;;;5051949;28;20511;-77
2022/07/22 08:38:37;;;;;;;7.40;3.17;;;22.60;95.90;;;;;;5045674;28;20521;-77
2022/07/22 08:41:06;;;;;;;6.67;2.20;;;22.60;96.00;;;;;;5048828;28;20455;-77
2022/07/22 08:43:36;;;;;;;7.87;2.33;;;22.40;96.30;;;;;;5048313;28;20516;-77
2022/07/22 08:46:04;;;;;;;4.20;1.80;;;22.30;97.00;;;;;;5068877;28;20449;-76
2022/07/22 08:48:32;;;;;;;4.20;1.80;;;22.20;96.90;;;;;;5067544;28;20456;-77
2022/07/22 08:51:00;;;;;;;5.17;1.83;;;22.30;96.30;;;;;;5054143;28;20875;-77
2022/07/22 08:53:26;;;;;;;3.93;2.07;;;22.70;96.20;;;;;;5055074;28;20540;-77
2022/07/22 08:55:53;;;;;;;4.87;2.10;;;23.10;95.00;;;;;;5056649;28;20964;-77
2022/07/22 08:58:21;;;;;;;4.67;1.73;;;23.30;94.40;;;;;;5052714;28;20841;-77
2022/07/22 09:01:07;;;;;;;3.60;1.80;;;23.20;93.00;;;;;;5050253;28;20519;-77
2022/07/22 09:03:46;;;;;;;3.87;1.60;;;23.00;93.90;;;;;;5045685;28;20494;-77
2022/07/22 09:06:13;;;;;;;6.27;2.80;;;22.90;93.70;;;;;;5024301;28;20451;-77
2022/07/22 09:08:55;;;;;;;5.40;1.70;;;22.90;94.10;;;;;;5052521;28;20536;-77
2022/07/22 09:11:28;;;;;;;5.13;2.13;;;22.90;94.50;;;;;;5039690;28;20962;-78
2022/07/22 09:13:55;;;;;;;6.27;2.47;;;22.70;94.40;;;;;;5048390;28;20470;-77
2022/07/22 09:16:41;;;;;;;3.40;1.67;;;22.70;95.40;;;;;;5054784;28;20492;-77
2022/07/22 09:19:09;;;;;;;6.60;2.10;;;22.60;95.30;;;;;;5041544;28;20952;-77
2022/07/22 09:21:41;;;;;;;4.57;2.40;;;22.60;95.50;;;;;;5049186;28;20529;-78
2022/07/22 09:24:09;;;;;;;9.57;2.90;;;22.70;95.20;;;;;;5044261;28;20552;-77
2022/07/22 09:26:37;;;;;;;8.73;2.47;;;22.50;95.40;;;;;;5051454;28;20436;-77
2022/07/22 09:29:06;;;;;;;4.97;2.63;;;22.40;95.60;;;;;;5049427;28;20543;-76
2022/07/22 09:31:36;;;;;;;5.10;2.80;;;22.40;96.60;;;;;;5047066;28;20532;-76
2022/07/22 09:34:04;;;;;;;5.30;2.17;;;22.40;96.50;;;;;;5049827;28;20465;-78
2022/07/22 09:36:40;;;;;;;5.43;2.30;;;22.50;96.00;;;;;;5048382;28;20475;-78
2022/07/22 09:39:25;;;;;;;5.20;2.07;;;22.50;95.50;;;;;;5041312;28;20919;-78
2022/07/22 09:41:59;;;;;;;7.00;2.03;;;22.60;96.20;;;;;;5050005;28;20499;-77
2022/07/22 09:44:26;;;;;;;3.40;2.53;;;22.40;96.00;;;;;;5037122;28;20512;-77
2022/07/22 09:46:52;;;;;;;5.17;2.43;;;22.50;96.50;;;;;;5044442;28;20534;-76
2022/07/22 09:49:31;;;;;;;6.43;2.60;;;22.50;96.50;;;;;;5053885;28;20437;-77
2022/07/22 09:52:01;;;;;;;5.93;2.80;;;22.10;96.60;;;;;;5046126;28;20539;-74
2022/07/22 09:54:29;;;;;;;3.13;2.30;;;22.00;96.50;;;;;;5042658;28;20477;-78
2022/07/22 09:56:58;;;;;;;7.33;2.27;;;21.90;97.30;;;;;;5041803;28;20456;-78
2022/07/22 09:59:27;;;;;;;5.63;2.33;;;21.80;96.90;;;;;;5045696;28;20453;-76
2022/07/22 10:01:58;;;;;;;4.90;2.80;;;21.80;97.40;;;;;;5058501;28;20477;-77
2022/07/22 10:04:31;;;;;;;4.70;2.13;;;21.90;97.00;;;;;;5057627;28;20500;-76
2022/07/22 10:07:02;;;;;;;10.53;2.10;;;22.10;96.20;;;;;;5051426;28;20540;-77
2022/07/22 10:09:30;;;;;;;10.43;2.10;;;22.10;95.60;;;;;;5051340;28;20462;-77
2022/07/22 10:11:57;;;;;;;3.73;2.60;;;22.20;95.50;;;;;;5044553;28;20451;-77
2022/07/22 10:14:25;;;;;;;4.93;2.47;;;22.30;95.30;;;;;;5048293;28;20523;-77
2022/07/22 10:16:52;;;;;;;5.50;1.83;;;22.30;94.60;;;;;;5048963;28;20544;-77
2022/07/22 10:19:19;;;;;;;6.10;2.63;;;22.30;95.50;;;;;;5050072;28;20521;-77
2022/07/22 10:21:46;;;;;;;5.27;2.50;;;22.30;95.60;;;;;;5045678;28;20480;-77
2022/07/22 10:24:17;;;;;;;6.50;2.50;;;22.40;95.80;;;;;;5055216;28;20536;-77
2022/07/22 10:26:49;;;;;;;7.70;2.43;;;22.60;95.40;;;;;;5042259;28;20525;-77
2022/07/22 10:29:29;;;;;;;5.53;1.90;;;22.80;94.60;;;;;;5046338;28;20453;-77
2022/07/22 10:32:25;;;;;;;6.00;2.40;;;23.10;93.90;;;;;;5048018;28;20482;-75
2022/07/22 10:35:22;;;;;;;5.00;1.80;;;23.50;93.40;;;;;;5040911;28;21002;-76
2022/07/22 10:37:50;;;;;;;2.83;1.60;;;23.50;92.80;;;;;;5044261;28;20477;-77
2022/07/22 10:40:20;;;;;;;7.30;2.13;;;23.60;92.50;;;;;;5050197;28;20462;-77
2022/07/22 10:43:21;;;;;;;6.00;3.33;;;23.70;92.70;;;;;;5047731;28;20485;-76
2022/07/22 10:45:51;;;;;;;5.27;2.60;;;23.70;93.00;;;;;;5046024;28;20456;-77
2022/07/22 10:48:21;;;;;;;4.00;2.30;;;23.40;93.30;;;;;;5049578;28;20442;-77
2022/07/22 10:51:05;;;;;;;2.83;2.10;;;23.40;93.70;;;;;;5046446;28;20454;-77
2022/07/22 10:53:48;;;;;;;5.13;2.50;;;23.30;93.70;;;;;;5050116;28;20457;-77
2022/07/22 10:56:23;;;;;;;8.30;2.00;;;23.50;93.40;;;;;;5027552;28;20459;-77
2022/07/22 10:58:52;;;;;;;4.83;2.43;;;23.60;93.30;;;;;;5028937;28;20512;-77
2022/07/22 11:01:22;;;;;;;4.23;2.37;;;23.60;92.70;;;;;;5050892;28;20466;-77
2022/07/22 11:03:50;;;;;;;3.37;1.93;;;23.60;92.70;;;;;;5052751;28;20913;-76
2022/07/22 11:06:29;;;;;;;4.20;2.00;;;23.60;92.80;;;;;;5043948;28;20467;-78
2022/07/22 11:09:00;;;;;;;7.10;2.60;;;23.50;92.40;;;;;;5063236;28;20438;-77
2022/07/22 11:11:52;;;;;;;8.43;2.37;;;23.40;92.60;;;;;;5055818;28;20438;-77
2022/07/22 11:14:26;;;;;;;3.97;1.70;;;23.10;92.80;;;;;;5028297;28;20511;-78
2022/07/22 11:16:54;;;;;;;3.27;1.90;;;22.90;93.20;;;;;;5045531;28;20992;-78
2022/07/22 11:19:24;;;;;;;4.83;2.13;;;22.80;93.30;;;;;;5050614;28;20462;-77
2022/07/22 11:21:53;;;;;;;5.87;2.07;;;22.80;93.70;;;;;;5049950;28;20525;-77
2022/07/22 11:24:20;;;;;;;6.47;2.53;;;22.90;93.50;;;;;;5045677;28;20493;-77
2022/07/22 11:26:49;;;;;;;5.33;2.43;;;22.80;93.50;;;;;;5054615;28;20441;-76
2022/07/22 11:29:25;;;;;;;3.73;1.77;;;22.90;93.70;;;;;;5044907;28;20823;-76
2022/07/22 11:31:52;;;;;;;2.90;1.80;;;22.90;93.50;;;;;;5047440;28;20782;-77
2022/07/22 11:34:22;;;;;;;10.97;3.20;;;23.00;93.30;;;;;;5045479;28;20558;-77
2022/07/22 11:36:50;;;;;;;2.30;2.10;;;23.30;93.30;;;;;;5042831;28;20897;-78
2022/07/22 11:39:20;;;;;;;3.60;1.90;;;23.70;92.70;;;;;;5037233;28;20447;-77
2022/07/22 11:41:47;;;;;;;6.80;2.27;;;24.00;92.40;;;;;;5051387;28;20469;-76
2022/07/22 11:44:20;;;;;;;4.00;2.13;;;24.10;91.90;;;;;;5042307;28;20576;-76
2022/07/22 11:46:47;;;;;;;4.47;1.80;;;23.70;92.20;;;;;;5049068;28;20457;-78
2022/07/22 11:49:15;;;;;;;3.90;2.30;;;23.70;92.30;;;;;;5041979;28;20880;-76
2022/07/22 11:51:42;;;;;;;8.47;1.83;;;24.10;91.90;;;;;;5039613;28;20545;-78
2022/07/22 11:54:09;;;;;;;4.10;2.43;;;24.10;91.80;;;;;;5047370;28;20565;-76
2022/07/22 11:56:37;;;;;;;5.20;3.00;;;24.00;91.90;;;;;;5046671;28;20537;-77
2022/07/22 11:59:05;;;;;;;6.37;2.90;;;24.10;92.30;;;;;;5052934;28;20477;-77
2022/07/22 12:01:36;;;;;;;6.63;2.53;;;24.00;92.20;;;;;;5049234;28;20527;-78
2022/07/22 12:04:05;;;;;;;10.60;2.60;;;23.90;92.20;;;;;;5042520;28;20988;-75
2022/07/22 12:06:37;;;;;;;6.90;3.23;;;23.70;92.50;;;;;;5053026;28;20486;-77
2022/07/22 12:09:07;;;;;;;9.60;2.47;;;23.60;92.90;;;;;;5052535;28;20784;-78
2022/07/22 12:11:35;;;;;;;3.43;1.93;;;23.50;92.90;;;;;;5048760;28;20450;-76
2022/07/22 12:14:09;;;;;;;8.73;3.10;;;23.40;93.00;;;;;;5057837;28;20553;-76
2022/07/22 12:16:39;;;;;;;4.40;2.93;;;23.20;93.00;;;;;;5051368;28;20855;-77
2022/07/22 12:19:09;;;;;;;7.67;3.60;;;23.00;93.30;;;;;;5047381;28;20529;-77
2022/07/22 12:21:38;;;;;;;6.53;2.80;;;22.90;93.60;;;;;;5039842;28;20449;-77
2022/07/22 12:24:07;;;;;;;3.73;2.30;;;22.80;93.40;;;;;;5046629;28;20652;-75
2022/07/22 12:26:46;;;;;;;4.93;2.40;;;22.60;94.70;;;;;;5041174;28;20438;-77
2022/07/22 12:29:24;;;;;;;4.43;2.20;;;22.30;95.10;;;;;;5042385;28;20457;-77
2022/07/22 12:31:55;;;;;;;5.40;2.73;;;22.50;95.20;;;;;;5057220;28;20442;-77
2022/07/22 12:34:37;;;;;;;5.27;2.30;;;22.50;95.10;;;;;;5057226;28;20497;-77
2022/07/22 12:37:16;;;;;;;2.90;2.00;;;22.50;95.20;;;;;;5027041;28;20429;-77
2022/07/22 12:39:59;;;;;;;5.57;2.23;;;22.50;95.00;;;;;;5041286;28;20446;-77
2022/07/22 12:42:27;;;;;;;5.00;2.50;;;22.70;95.60;;;;;;5039279;28;20964;-77
2022/07/22 12:45:00;;;;;;;7.20;4.57;;;22.40;95.30;;;;;;5043495;28;20565;-78
2022/07/22 12:47:49;;;;;;;5.13;2.50;;;22.60;96.10;;;;;;5038490;28;20481;-76
2022/07/22 12:50:21;;;;;;;3.50;2.00;;;22.70;95.30;;;;;;5047847;28;20457;-77
2022/07/22 12:52:49;;;;;;;6.47;2.97;;;22.90;94.80;;;;;;5047514;28;20824;-79